sensor_id;sensor_type;location;lat;lon;timestamp;temperature;humidity
4081;DHT22;2055;50.074;8.436;2022-08-19T00:01:14;21.50;99.90
4081;DHT22;2055;50.074;8.436;2022-08-19T00:03:40;21.50;99.90
4081;DHT22;2055;50.074;8.436;2022-08-19T00:06:05;21.50;99.90
4081;DHT22;2055;50.074;8.436;2022-08-19T00:08:31;21.50;99.90
4081;DHT22;2055;50.074;8.436;2022-08-19T00:10:56;21.40;99.90
4081;DHT22;2055;50.074;8.436;2022-08-19T00:13:23;21.40;99.90
4081;DHT22;2055;50.074;8.436;2022-08-19T00:15:48;21.40;99.90
4081;DHT22;2055;50.074;8.436;2022-08-19T00:18:14;21.30;99.90
4081;DHT22;2055;50.074;8.436;2022-08-19T00:20:39;21.40;99.90
4081;DHT22;2055;50.074;8.436;2022-08-19T00:23:06;21.30;99.90
4081;DHT22;2055;50.074;8.436;2022-08-19T00:25:32;21.40;99.90
4081;DHT22;2055;50.074;8.436;2022-08-19T00:27:58;21.40;99.90
4081;DHT22;2055;50.074;8.436;2022-08-19T00:30:24;21.40;99.90
4081;DHT22;2055;50.074;8.436;2022-08-19T00:32:51;21.30;99.90
4081;DHT22;2055;50.074;8.436;2022-08-19T00:35:16;21.40;99.90
4081;DHT22;2055;50.074;8.436;2022-08-19T00:37:42;21.40;99.90
4081;DHT22;2055;50.074;8.436;2022-08-19T00:40:11;21.40;99.90
4081;DHT22;2055;50.074;8.436;2022-08-19T00:42:39;21.40;99.90
4081;DHT22;2055;50.074;8.436;2022-08-19T00:45:11;21.50;99.90
4081;DHT22;2055;50.074;8.436;2022-08-19T00:47:37;21.40;99.90
4081;DHT22;2055;50.074;8.436;2022-08-19T00:50:03;21.40;99.90
4081;DHT22;2055;50.074;8.436;2022-08-19T00:52:33;21.40;99.90
4081;DHT22;2055;50.074;8.436;2022-08-19T00:55:00;21.50;99.90
4081;DHT22;2055;50.074;8.436;2022-08-19T00:57:33;21.40;99.90
4081;DHT22;2055;50.074;8.436;2022-08-19T01:00:00;21.50;99.90
4081;DHT22;2055;50.074;8.436;2022-08-19T01:02:28;21.50;99.90
4081;DHT22;2055;50.074;8.436;2022-08-19T01:04:54;21.50;99.90
4081;DHT22;2055;50.074;8.436;2022-08-19T01:07:20;21.50;99.90
4081;DHT22;2055;50.074;8.436;2022-08-19T01:09:46;21.40;99.90
4081;DHT22;2055;50.074;8.436;2022-08-19T01:12:12;21.40;99.90
4081;DHT22;2055;50.074;8.436;2022-08-19T01:14:39;21.40;99.90
4081;DHT22;2055;50.074;8.436;2022-08-19T01:17:07;21.60;99.90
4081;DHT22;2055;50.074;8.436;2022-08-19T01:19:38;21.30;99.90
4081;DHT22;2055;50.074;8.436;2022-08-19T01:24:36;21.30;99.90
4081;DHT22;2055;50.074;8.436;2022-08-19T01:27:04;21.30;99.90
4081;DHT22;2055;50.074;8.436;2022-08-19T01:29:30;21.20;99.90
4081;DHT22;2055;50.074;8.436;2022-08-19T01:31:55;21.20;99.90
4081;DHT22;2055;50.074;8.436;2022-08-19T01:34:21;21.20;99.90
4081;DHT22;2055;50.074;8.436;2022-08-19T01:36:47;21.20;99.90
4081;DHT22;2055;50.074;8.436;2022-08-19T01:39:18;21.20;99.90
4081;DHT22;2055;50.074;8.436;2022-08-19T01:41:44;21.30;99.90
4081;DHT22;2055;50.074;8.436;2022-08-19T01:44:10;21.10;99.90
4081;DHT22;2055;50.074;8.436;2022-08-19T01:46:36;21.20;99.90
4081;DHT22;2055;50.074;8.436;2022-08-19T01:49:04;21.10;99.90
4081;DHT22;2055;50.074;8.436;2022-08-19T01:51:30;21.30;99.90
4081;DHT22;2055;50.074;8.436;2022-08-19T01:53:57;21.10;99.90
4081;DHT22;2055;50.074;8.436;2022-08-19T01:56:23;21.10;99.90
4081;DHT22;2055;50.074;8.436;2022-08-19T01:58:53;21.10;99.90
4081;DHT22;2055;50.074;8.436;2022-08-19T02:01:19;21.20;99.90
4081;DHT22;2055;50.074;8.436;2022-08-19T02:03:45;21.20;99.90
4081;DHT22;2055;50.074;8.436;2022-08-19T02:06:11;21.20;99.90
4081;DHT22;2055;50.074;8.436;2022-08-19T02:08:38;21.10;99.90
4081;DHT22;2055;50.074;8.436;2022-08-19T02:11:06;21.10;99.90
4081;DHT22;2055;50.074;8.436;2022-08-19T02:13:32;21.10;99.90
4081;DHT22;2055;50.074;8.436;2022-08-19T02:15:59;21.10;99.90
4081;DHT22;2055;50.074;8.436;2022-08-19T02:18:24;21.20;99.90
4081;DHT22;2055;50.074;8.436;2022-08-19T02:20:51;21.00;99.90
4081;DHT22;2055;50.074;8.436;2022-08-19T02:23:17;21.00;99.90
4081;DHT22;2055;50.074;8.436;2022-08-19T02:25:44;21.00;99.90
4081;DHT22;2055;50.074;8.436;2022-08-19T02:28:11;20.90;99.90
4081;DHT22;2055;50.074;8.436;2022-08-19T02:30:37;20.90;99.90
4081;DHT22;2055;50.074;8.436;2022-08-19T02:33:04;21.00;99.90
4081;DHT22;2055;50.074;8.436;2022-08-19T02:35:30;21.10;99.90
4081;DHT22;2055;50.074;8.436;2022-08-19T02:37:55;20.80;99.90
4081;DHT22;2055;50.074;8.436;2022-08-19T02:40:40;20.70;99.90
4081;DHT22;2055;50.074;8.436;2022-08-19T02:43:07;20.70;99.90
4081;DHT22;2055;50.074;8.436;2022-08-19T02:45:38;20.60;99.90
4081;DHT22;2055;50.074;8.436;2022-08-19T02:48:04;20.60;99.90
4081;DHT22;2055;50.074;8.436;2022-08-19T02:50:31;20.50;99.90
4081;DHT22;2055;50.074;8.436;2022-08-19T02:52:57;20.60;99.90
4081;DHT22;2055;50.074;8.436;2022-08-19T02:55:23;20.50;99.90
4081;DHT22;2055;50.074;8.436;2022-08-19T02:57:49;20.40;99.90
4081;DHT22;2055;50.074;8.436;2022-08-19T03:00:15;20.40;99.90
4081;DHT22;2055;50.074;8.436;2022-08-19T03:02:41;20.30;99.90
4081;DHT22;2055;50.074;8.436;2022-08-19T03:05:08;20.30;99.90
4081;DHT22;2055;50.074;8.436;2022-08-19T03:07:35;20.30;99.90
4081;DHT22;2055;50.074;8.436;2022-08-19T03:10:01;20.30;99.90
4081;DHT22;2055;50.074;8.436;2022-08-19T03:12:27;20.30;99.90
4081;DHT22;2055;50.074;8.436;2022-08-19T03:15:06;20.30;99.90
4081;DHT22;2055;50.074;8.436;2022-08-19T03:17:33;20.30;99.90
4081;DHT22;2055;50.074;8.436;2022-08-19T03:19:59;20.30;99.90
4081;DHT22;2055;50.074;8.436;2022-08-19T03:22:24;20.30;99.90
4081;DHT22;2055;50.074;8.436;2022-08-19T03:24:50;20.30;99.90
4081;DHT22;2055;50.074;8.436;2022-08-19T03:27:16;20.20;99.90
4081;DHT22;2055;50.074;8.436;2022-08-19T03:29:43;20.30;99.90
4081;DHT22;2055;50.074;8.436;2022-08-19T03:32:09;20.30;99.90
4081;DHT22;2055;50.074;8.436;2022-08-19T03:34:37;20.20;99.90
4081;DHT22;2055;50.074;8.436;2022-08-19T03:37:06;20.20;99.90
4081;DHT22;2055;50.074;8.436;2022-08-19T03:39:32;20.20;99.90
4081;DHT22;2055;50.074;8.436;2022-08-19T03:41:58;20.20;99.90
4081;DHT22;2055;50.074;8.436;2022-08-19T03:44:25;20.10;99.90
4081;DHT22;2055;50.074;8.436;2022-08-19T03:46:53;20.00;99.90
4081;DHT22;2055;50.074;8.436;2022-08-19T03:49:22;19.90;99.90
4081;DHT22;2055;50.074;8.436;2022-08-19T03:51:49;20.10;99.90
4081;DHT22;2055;50.074;8.436;2022-08-19T03:54:18;19.70;99.90
4081;DHT22;2055;50.074;8.436;2022-08-19T03:56:46;19.80;99.90
4081;DHT22;2055;50.074;8.436;2022-08-19T03:59:19;19.70;99.90
4081;DHT22;2055;50.074;8.436;2022-08-19T04:01:45;19.70;99.90
4081;DHT22;2055;50.074;8.436;2022-08-19T04:04:11;19.70;99.90
4081;DHT22;2055;50.074;8.436;2022-08-19T04:06:38;19.80;99.90
4081;DHT22;2055;50.074;8.436;2022-08-19T04:09:10;19.70;99.90
4081;DHT22;2055;50.074;8.436;2022-08-19T04:11:39;19.80;99.90
4081;DHT22;2055;50.074;8.436;2022-08-19T04:14:08;19.80;99.90
4081;DHT22;2055;50.074;8.436;2022-08-19T04:16:34;19.80;99.90
4081;DHT22;2055;50.074;8.436;2022-08-19T04:19:02;20.00;99.90
4081;DHT22;2055;50.074;8.436;2022-08-19T04:21:28;19.80;99.90
4081;DHT22;2055;50.074;8.436;2022-08-19T04:23:55;19.80;99.90
4081;DHT22;2055;50.074;8.436;2022-08-19T04:26:27;19.80;99.90
4081;DHT22;2055;50.074;8.436;2022-08-19T04:28:53;19.80;99.90
4081;DHT22;2055;50.074;8.436;2022-08-19T04:31:25;19.80;99.90
4081;DHT22;2055;50.074;8.436;2022-08-19T04:33:56;19.80;99.90
4081;DHT22;2055;50.074;8.436;2022-08-19T04:36:26;19.90;99.90
4081;DHT22;2055;50.074;8.436;2022-08-19T04:39:05;19.70;99.90
4081;DHT22;2055;50.074;8.436;2022-08-19T04:41:31;19.70;99.90
4081;DHT22;2055;50.074;8.436;2022-08-19T04:44:16;19.70;99.90
4081;DHT22;2055;50.074;8.436;2022-08-19T04:46:48;19.70;99.90
4081;DHT22;2055;50.074;8.436;2022-08-19T04:49:16;19.60;99.90
4081;DHT22;2055;50.074;8.436;2022-08-19T04:51:44;19.70;99.90
4081;DHT22;2055;50.074;8.436;2022-08-19T04:54:11;19.80;99.90
4081;DHT22;2055;50.074;8.436;2022-08-19T04:56:36;19.70;99.90
4081;DHT22;2055;50.074;8.436;2022-08-19T04:59:04;19.70;99.90
4081;DHT22;2055;50.074;8.436;2022-08-19T05:01:31;19.70;99.90
4081;DHT22;2055;50.074;8.436;2022-08-19T05:03:59;19.70;99.90
4081;DHT22;2055;50.074;8.436;2022-08-19T05:06:26;19.80;99.90
4081;DHT22;2055;50.074;8.436;2022-08-19T05:08:52;20.00;99.90
4081;DHT22;2055;50.074;8.436;2022-08-19T05:11:26;20.10;99.90
4081;DHT22;2055;50.074;8.436;2022-08-19T05:13:53;20.20;99.90
4081;DHT22;2055;50.074;8.436;2022-08-19T05:16:21;20.30;99.90
4081;DHT22;2055;50.074;8.436;2022-08-19T05:18:48;20.40;99.90
4081;DHT22;2055;50.074;8.436;2022-08-19T05:21:33;20.30;99.90
4081;DHT22;2055;50.074;8.436;2022-08-19T05:24:17;20.30;99.90
4081;DHT22;2055;50.074;8.436;2022-08-19T05:26:46;20.40;99.90
4081;DHT22;2055;50.074;8.436;2022-08-19T05:29:14;20.40;99.90
4081;DHT22;2055;50.074;8.436;2022-08-19T05:31:41;20.30;99.90
4081;DHT22;2055;50.074;8.436;2022-08-19T05:34:07;20.40;99.90
4081;DHT22;2055;50.074;8.436;2022-08-19T05:36:40;20.30;99.90
4081;DHT22;2055;50.074;8.436;2022-08-19T05:39:07;20.20;99.90
4081;DHT22;2055;50.074;8.436;2022-08-19T05:41:34;20.30;99.90
4081;DHT22;2055;50.074;8.436;2022-08-19T05:44:04;20.40;99.90
4081;DHT22;2055;50.074;8.436;2022-08-19T05:46:32;20.60;99.90
4081;DHT22;2055;50.074;8.436;2022-08-19T05:48:58;20.80;99.90
4081;DHT22;2055;50.074;8.436;2022-08-19T05:51:24;20.70;99.90
4081;DHT22;2055;50.074;8.436;2022-08-19T05:53:50;20.70;99.90
4081;DHT22;2055;50.074;8.436;2022-08-19T05:56:16;20.80;99.90
4081;DHT22;2055;50.074;8.436;2022-08-19T05:58:44;20.70;99.90
4081;DHT22;2055;50.074;8.436;2022-08-19T06:01:15;20.80;99.90
4081;DHT22;2055;50.074;8.436;2022-08-19T06:03:41;20.60;99.90
4081;DHT22;2055;50.074;8.436;2022-08-19T06:06:09;20.70;99.90
4081;DHT22;2055;50.074;8.436;2022-08-19T06:08:35;20.80;99.90
4081;DHT22;2055;50.074;8.436;2022-08-19T06:13:41;20.90;99.90
4081;DHT22;2055;50.074;8.436;2022-08-19T06:16:07;20.90;99.90
4081;DHT22;2055;50.074;8.436;2022-08-19T06:18:32;21.00;99.90
4081;DHT22;2055;50.074;8.436;2022-08-19T06:20:58;21.00;99.90
4081;DHT22;2055;50.074;8.436;2022-08-19T06:23:24;21.00;99.90
4081;DHT22;2055;50.074;8.436;2022-08-19T06:25:51;21.20;99.90
4081;DHT22;2055;50.074;8.436;2022-08-19T06:28:16;21.30;99.90
4081;DHT22;2055;50.074;8.436;2022-08-19T06:30:42;21.30;99.90
4081;DHT22;2055;50.074;8.436;2022-08-19T06:33:07;21.50;99.90
4081;DHT22;2055;50.074;8.436;2022-08-19T06:35:38;21.50;99.90
4081;DHT22;2055;50.074;8.436;2022-08-19T06:38:04;21.60;99.90
4081;DHT22;2055;50.074;8.436;2022-08-19T06:40:30;21.60;99.90
4081;DHT22;2055;50.074;8.436;2022-08-19T06:42:56;21.60;99.90
4081;DHT22;2055;50.074;8.436;2022-08-19T06:45:24;21.60;99.90
4081;DHT22;2055;50.074;8.436;2022-08-19T06:47:49;21.70;99.90
4081;DHT22;2055;50.074;8.436;2022-08-19T06:50:15;21.80;99.90
4081;DHT22;2055;50.074;8.436;2022-08-19T06:52:40;21.80;99.90
4081;DHT22;2055;50.074;8.436;2022-08-19T06:55:06;21.90;99.90
4081;DHT22;2055;50.074;8.436;2022-08-19T06:57:33;21.90;99.90
4081;DHT22;2055;50.074;8.436;2022-08-19T06:59:59;21.80;99.90
4081;DHT22;2055;50.074;8.436;2022-08-19T07:02:25;22.00;99.90
4081;DHT22;2055;50.074;8.436;2022-08-19T07:04:52;22.00;99.90
4081;DHT22;2055;50.074;8.436;2022-08-19T07:07:18;22.20;99.90
4081;DHT22;2055;50.074;8.436;2022-08-19T07:09:44;22.20;99.90
4081;DHT22;2055;50.074;8.436;2022-08-19T07:12:11;22.40;99.90
4081;DHT22;2055;50.074;8.436;2022-08-19T07:14:39;22.30;99.90
4081;DHT22;2055;50.074;8.436;2022-08-19T07:17:07;22.40;99.90
4081;DHT22;2055;50.074;8.436;2022-08-19T07:19:34;22.60;99.90
4081;DHT22;2055;50.074;8.436;2022-08-19T07:22:02;23.00;99.90
4081;DHT22;2055;50.074;8.436;2022-08-19T07:24:29;22.60;99.90
4081;DHT22;2055;50.074;8.436;2022-08-19T07:26:58;22.50;99.90
4081;DHT22;2055;50.074;8.436;2022-08-19T07:29:26;22.50;99.90
4081;DHT22;2055;50.074;8.436;2022-08-19T07:31:52;22.50;99.90
4081;DHT22;2055;50.074;8.436;2022-08-19T07:34:22;22.50;99.90
4081;DHT22;2055;50.074;8.436;2022-08-19T07:36:49;22.70;99.90
4081;DHT22;2055;50.074;8.436;2022-08-19T07:39:28;22.80;99.90
4081;DHT22;2055;50.074;8.436;2022-08-19T07:41:56;22.90;99.90
4081;DHT22;2055;50.074;8.436;2022-08-19T07:44:23;23.00;99.90
4081;DHT22;2055;50.074;8.436;2022-08-19T07:46:51;23.10;99.90
4081;DHT22;2055;50.074;8.436;2022-08-19T07:49:18;23.30;99.90
4081;DHT22;2055;50.074;8.436;2022-08-19T07:51:51;23.30;99.90
4081;DHT22;2055;50.074;8.436;2022-08-19T07:54:18;23.30;99.90
4081;DHT22;2055;50.074;8.436;2022-08-19T07:56:45;23.30;99.90
4081;DHT22;2055;50.074;8.436;2022-08-19T07:59:11;23.50;99.90
4081;DHT22;2055;50.074;8.436;2022-08-19T08:01:37;23.60;99.90
4081;DHT22;2055;50.074;8.436;2022-08-19T08:04:05;23.60;99.90
4081;DHT22;2055;50.074;8.436;2022-08-19T08:06:49;23.70;99.90
4081;DHT22;2055;50.074;8.436;2022-08-19T08:09:38;23.70;99.90
4081;DHT22;2055;50.074;8.436;2022-08-19T08:12:10;23.80;99.90
4081;DHT22;2055;50.074;8.436;2022-08-19T08:14:40;23.90;99.90
4081;DHT22;2055;50.074;8.436;2022-08-19T08:17:06;23.70;99.90
4081;DHT22;2055;50.074;8.436;2022-08-19T08:19:32;23.70;99.90
4081;DHT22;2055;50.074;8.436;2022-08-19T08:21:59;23.70;99.90
4081;DHT22;2055;50.074;8.436;2022-08-19T08:24:27;23.60;99.90
4081;DHT22;2055;50.074;8.436;2022-08-19T08:26:53;23.50;99.90
4081;DHT22;2055;50.074;8.436;2022-08-19T08:29:19;23.50;99.90
4081;DHT22;2055;50.074;8.436;2022-08-19T08:31:45;23.60;99.90
4081;DHT22;2055;50.074;8.436;2022-08-19T08:34:13;24.00;99.90
4081;DHT22;2055;50.074;8.436;2022-08-19T08:36:41;24.10;99.90
4081;DHT22;2055;50.074;8.436;2022-08-19T08:39:09;24.00;99.90
4081;DHT22;2055;50.074;8.436;2022-08-19T08:41:53;24.10;99.90
4081;DHT22;2055;50.074;8.436;2022-08-19T08:44:37;24.10;99.90
4081;DHT22;2055;50.074;8.436;2022-08-19T08:47:09;24.50;99.90
4081;DHT22;2055;50.074;8.436;2022-08-19T08:49:45;24.60;99.90
4081;DHT22;2055;50.074;8.436;2022-08-19T08:54:48;24.90;99.90
4081;DHT22;2055;50.074;8.436;2022-08-19T08:57:19;24.90;99.90
4081;DHT22;2055;50.074;8.436;2022-08-19T08:59:48;25.10;99.90
4081;DHT22;2055;50.074;8.436;2022-08-19T09:02:18;25.40;99.90
4081;DHT22;2055;50.074;8.436;2022-08-19T09:04:44;25.20;99.90
4081;DHT22;2055;50.074;8.436;2022-08-19T09:10:24;25.00;99.90
4081;DHT22;2055;50.074;8.436;2022-08-19T09:15:33;25.30;99.90
4081;DHT22;2055;50.074;8.436;2022-08-19T09:18:02;25.20;99.90
4081;DHT22;2055;50.074;8.436;2022-08-19T09:20:29;25.10;99.90
4081;DHT22;2055;50.074;8.436;2022-08-19T09:22:57;25.40;99.90
4081;DHT22;2055;50.074;8.436;2022-08-19T09:25:23;25.70;99.90
4081;DHT22;2055;50.074;8.436;2022-08-19T09:27:50;25.40;99.90
4081;DHT22;2055;50.074;8.436;2022-08-19T09:30:26;25.30;99.90
4081;DHT22;2055;50.074;8.436;2022-08-19T09:32:53;25.50;99.90
4081;DHT22;2055;50.074;8.436;2022-08-19T09:35:25;25.30;99.90
4081;DHT22;2055;50.074;8.436;2022-08-19T09:37:52;25.30;99.90
4081;DHT22;2055;50.074;8.436;2022-08-19T09:40:18;25.40;99.90
4081;DHT22;2055;50.074;8.436;2022-08-19T09:42:45;25.50;99.90
4081;DHT22;2055;50.074;8.436;2022-08-19T09:45:14;25.70;99.90
4081;DHT22;2055;50.074;8.436;2022-08-19T09:47:39;25.90;99.90
4081;DHT22;2055;50.074;8.436;2022-08-19T09:50:07;26.10;99.90
4081;DHT22;2055;50.074;8.436;2022-08-19T09:52:33;26.30;99.90
4081;DHT22;2055;50.074;8.436;2022-08-19T09:55:06;26.00;99.90
4081;DHT22;2055;50.074;8.436;2022-08-19T09:57:32;26.40;99.90
4081;DHT22;2055;50.074;8.436;2022-08-19T09:59:58;26.30;99.90
4081;DHT22;2055;50.074;8.436;2022-08-19T10:02:24;26.70;99.90
4081;DHT22;2055;50.074;8.436;2022-08-19T10:04:50;26.70;99.90
4081;DHT22;2055;50.074;8.436;2022-08-19T10:07:35;27.00;99.90
4081;DHT22;2055;50.074;8.436;2022-08-19T10:10:02;26.30;99.90
4081;DHT22;2055;50.074;8.436;2022-08-19T10:12:27;26.00;99.90
4081;DHT22;2055;50.074;8.436;2022-08-19T10:14:53;26.70;99.90
4081;DHT22;2055;50.074;8.436;2022-08-19T10:17:19;26.30;99.90
4081;DHT22;2055;50.074;8.436;2022-08-19T10:19:45;26.80;99.90
4081;DHT22;2055;50.074;8.436;2022-08-19T10:22:11;26.80;99.90
4081;DHT22;2055;50.074;8.436;2022-08-19T10:24:40;26.60;99.90
4081;DHT22;2055;50.074;8.436;2022-08-19T10:27:06;27.10;99.90
4081;DHT22;2055;50.074;8.436;2022-08-19T10:29:32;27.60;99.90
4081;DHT22;2055;50.074;8.436;2022-08-19T10:32:00;28.20;99.90
4081;DHT22;2055;50.074;8.436;2022-08-19T10:34:28;28.20;99.90
4081;DHT22;2055;50.074;8.436;2022-08-19T10:36:54;28.40;99.90
4081;DHT22;2055;50.074;8.436;2022-08-19T10:39:21;28.20;99.90
4081;DHT22;2055;50.074;8.436;2022-08-19T10:41:46;28.20;99.90
4081;DHT22;2055;50.074;8.436;2022-08-19T10:44:13;28.10;99.90
4081;DHT22;2055;50.074;8.436;2022-08-19T10:46:40;28.80;99.90
4081;DHT22;2055;50.074;8.436;2022-08-19T10:49:09;28.90;99.90
4081;DHT22;2055;50.074;8.436;2022-08-19T10:51:37;29.30;99.90
4081;DHT22;2055;50.074;8.436;2022-08-19T10:54:22;28.80;99.90
4081;DHT22;2055;50.074;8.436;2022-08-19T10:56:48;29.40;99.90
4081;DHT22;2055;50.074;8.436;2022-08-19T10:59:24;29.50;99.90
4081;DHT22;2055;50.074;8.436;2022-08-19T11:01:53;29.10;99.90
4081;DHT22;2055;50.074;8.436;2022-08-19T11:04:19;28.70;99.90
4081;DHT22;2055;50.074;8.436;2022-08-19T11:06:47;28.40;99.90
4081;DHT22;2055;50.074;8.436;2022-08-19T11:09:18;29.30;99.90
4081;DHT22;2055;50.074;8.436;2022-08-19T11:11:44;29.10;99.90
4081;DHT22;2055;50.074;8.436;2022-08-19T11:14:12;28.20;99.90
4081;DHT22;2055;50.074;8.436;2022-08-19T11:16:38;28.20;99.90
4081;DHT22;2055;50.074;8.436;2022-08-19T11:19:08;29.50;99.90
4081;DHT22;2055;50.074;8.436;2022-08-19T11:21:39;29.70;99.90
4081;DHT22;2055;50.074;8.436;2022-08-19T11:24:09;29.50;99.90
4081;DHT22;2055;50.074;8.436;2022-08-19T11:26:36;28.40;99.90
4081;DHT22;2055;50.074;8.436;2022-08-19T11:29:03;27.90;99.90
4081;DHT22;2055;50.074;8.436;2022-08-19T11:31:32;28.20;99.90
4081;DHT22;2055;50.074;8.436;2022-08-19T11:33:59;29.70;99.90
4081;DHT22;2055;50.074;8.436;2022-08-19T11:36:27;30.40;99.90
4081;DHT22;2055;50.074;8.436;2022-08-19T11:38:54;30.60;99.90
4081;DHT22;2055;50.074;8.436;2022-08-19T11:41:22;30.10;99.90
4081;DHT22;2055;50.074;8.436;2022-08-19T11:43:49;30.30;99.90
4081;DHT22;2055;50.074;8.436;2022-08-19T11:46:15;30.10;99.90
4081;DHT22;2055;50.074;8.436;2022-08-19T11:48:42;30.30;99.90
4081;DHT22;2055;50.074;8.436;2022-08-19T11:51:10;30.40;99.90
4081;DHT22;2055;50.074;8.436;2022-08-19T11:53:37;28.50;99.90
4081;DHT22;2055;50.074;8.436;2022-08-19T11:56:05;29.00;99.90
4081;DHT22;2055;50.074;8.436;2022-08-19T11:58:31;29.80;99.90
4081;DHT22;2055;50.074;8.436;2022-08-19T12:00:57;29.90;99.90
4081;DHT22;2055;50.074;8.436;2022-08-19T12:03:23;30.60;99.90
4081;DHT22;2055;50.074;8.436;2022-08-19T12:05:49;30.90;99.90
4081;DHT22;2055;50.074;8.436;2022-08-19T12:08:16;31.00;99.90
4081;DHT22;2055;50.074;8.436;2022-08-19T12:10:42;30.60;99.90
4081;DHT22;2055;50.074;8.436;2022-08-19T12:13:09;29.90;99.90
4081;DHT22;2055;50.074;8.436;2022-08-19T12:15:37;30.20;99.90
4081;DHT22;2055;50.074;8.436;2022-08-19T12:18:03;30.40;99.90
4081;DHT22;2055;50.074;8.436;2022-08-19T12:20:29;31.30;99.90
4081;DHT22;2055;50.074;8.436;2022-08-19T12:22:55;30.70;99.90
4081;DHT22;2055;50.074;8.436;2022-08-19T12:25:21;29.60;99.90
4081;DHT22;2055;50.074;8.436;2022-08-19T12:27:46;29.10;99.90
4081;DHT22;2055;50.074;8.436;2022-08-19T12:30:13;28.90;99.90
4081;DHT22;2055;50.074;8.436;2022-08-19T12:32:39;29.10;99.90
4081;DHT22;2055;50.074;8.436;2022-08-19T12:35:06;29.70;99.90
4081;DHT22;2055;50.074;8.436;2022-08-19T12:37:34;30.40;99.90
4081;DHT22;2055;50.074;8.436;2022-08-19T12:40:00;30.50;99.90
4081;DHT22;2055;50.074;8.436;2022-08-19T12:42:26;30.10;99.90
4081;DHT22;2055;50.074;8.436;2022-08-19T12:44:52;29.90;99.90
4081;DHT22;2055;50.074;8.436;2022-08-19T12:47:18;30.90;99.90
4081;DHT22;2055;50.074;8.436;2022-08-19T12:49:43;30.60;99.90
4081;DHT22;2055;50.074;8.436;2022-08-19T12:52:10;30.90;99.90
4081;DHT22;2055;50.074;8.436;2022-08-19T12:54:36;30.80;98.80
4081;DHT22;2055;50.074;8.436;2022-08-19T12:57:06;29.10;99.30
4081;DHT22;2055;50.074;8.436;2022-08-19T12:59:36;29.70;99.40
4081;DHT22;2055;50.074;8.436;2022-08-19T13:02:05;30.70;98.90
4081;DHT22;2055;50.074;8.436;2022-08-19T13:04:33;30.30;99.30
4081;DHT22;2055;50.074;8.436;2022-08-19T13:07:00;29.00;99.80
4081;DHT22;2055;50.074;8.436;2022-08-19T13:09:26;28.20;99.90
4081;DHT22;2055;50.074;8.436;2022-08-19T13:11:51;28.50;99.90
4081;DHT22;2055;50.074;8.436;2022-08-19T13:14:17;28.50;99.30
4081;DHT22;2055;50.074;8.436;2022-08-19T13:16:44;29.90;99.60
4081;DHT22;2055;50.074;8.436;2022-08-19T13:19:09;31.50;98.20
4081;DHT22;2055;50.074;8.436;2022-08-19T13:21:36;32.00;97.60
4081;DHT22;2055;50.074;8.436;2022-08-19T13:24:01;32.20;97.90
4081;DHT22;2055;50.074;8.436;2022-08-19T13:26:27;32.40;97.20
4081;DHT22;2055;50.074;8.436;2022-08-19T13:28:53;31.20;97.10
4081;DHT22;2055;50.074;8.436;2022-08-19T13:31:39;31.00;97.40
4081;DHT22;2055;50.074;8.436;2022-08-19T13:34:30;31.70;97.10
4081;DHT22;2055;50.074;8.436;2022-08-19T13:36:57;30.80;97.20
4081;DHT22;2055;50.074;8.436;2022-08-19T13:39:23;30.40;97.70
4081;DHT22;2055;50.074;8.436;2022-08-19T13:41:49;31.10;97.20
4081;DHT22;2055;50.074;8.436;2022-08-19T13:44:17;31.80;96.80
4081;DHT22;2055;50.074;8.436;2022-08-19T13:46:49;30.90;95.80
4081;DHT22;2055;50.074;8.436;2022-08-19T13:49:18;30.30;96.20
4081;DHT22;2055;50.074;8.436;2022-08-19T13:51:44;30.50;96.40
4081;DHT22;2055;50.074;8.436;2022-08-19T13:54:11;30.80;95.60
4081;DHT22;2055;50.074;8.436;2022-08-19T13:56:42;31.80;95.50
4081;DHT22;2055;50.074;8.436;2022-08-19T13:59:09;31.40;94.30
4081;DHT22;2055;50.074;8.436;2022-08-19T14:01:34;30.80;93.80
4081;DHT22;2055;50.074;8.436;2022-08-19T14:04:01;30.40;94.00
4081;DHT22;2055;50.074;8.436;2022-08-19T14:06:26;30.40;93.70
4081;DHT22;2055;50.074;8.436;2022-08-19T14:08:52;30.80;94.10
4081;DHT22;2055;50.074;8.436;2022-08-19T14:11:18;32.30;93.10
4081;DHT22;2055;50.074;8.436;2022-08-19T14:13:44;32.70;93.00
4081;DHT22;2055;50.074;8.436;2022-08-19T14:16:11;31.40;93.00
4081;DHT22;2055;50.074;8.436;2022-08-19T14:18:37;31.10;92.70
4081;DHT22;2055;50.074;8.436;2022-08-19T14:21:04;31.10;93.20
4081;DHT22;2055;50.074;8.436;2022-08-19T14:23:31;31.40;92.70
4081;DHT22;2055;50.074;8.436;2022-08-19T14:26:08;31.10;93.30
4081;DHT22;2055;50.074;8.436;2022-08-19T14:28:34;31.40;92.40
4081;DHT22;2055;50.074;8.436;2022-08-19T14:30:59;31.20;92.60
4081;DHT22;2055;50.074;8.436;2022-08-19T14:33:25;32.10;92.70
4081;DHT22;2055;50.074;8.436;2022-08-19T14:35:51;32.40;92.00
4081;DHT22;2055;50.074;8.436;2022-08-19T14:38:18;32.40;92.10
4081;DHT22;2055;50.074;8.436;2022-08-19T14:40:44;32.80;91.40
4081;DHT22;2055;50.074;8.436;2022-08-19T14:43:11;31.50;90.60
4081;DHT22;2055;50.074;8.436;2022-08-19T14:45:38;31.70;91.60
4081;DHT22;2055;50.074;8.436;2022-08-19T14:48:05;32.30;89.20
4081;DHT22;2055;50.074;8.436;2022-08-19T14:50:31;32.30;90.30
4081;DHT22;2055;50.074;8.436;2022-08-19T14:53:01;31.90;89.40
4081;DHT22;2055;50.074;8.436;2022-08-19T14:55:28;31.10;90.90
4081;DHT22;2055;50.074;8.436;2022-08-19T14:57:54;30.70;91.50
4081;DHT22;2055;50.074;8.436;2022-08-19T15:00:19;31.30;91.60
4081;DHT22;2055;50.074;8.436;2022-08-19T15:02:45;31.30;91.30
4081;DHT22;2055;50.074;8.436;2022-08-19T15:05:11;31.60;91.40
4081;DHT22;2055;50.074;8.436;2022-08-19T15:07:38;30.40;91.00
4081;DHT22;2055;50.074;8.436;2022-08-19T15:10:04;31.40;91.50
4081;DHT22;2055;50.074;8.436;2022-08-19T15:12:32;31.80;90.30
4081;DHT22;2055;50.074;8.436;2022-08-19T15:14:59;31.00;91.40
4081;DHT22;2055;50.074;8.436;2022-08-19T15:17:25;31.40;92.00
4081;DHT22;2055;50.074;8.436;2022-08-19T15:19:51;31.50;91.60
4081;DHT22;2055;50.074;8.436;2022-08-19T15:22:17;31.90;91.80
4081;DHT22;2055;50.074;8.436;2022-08-19T15:24:42;32.10;91.00
4081;DHT22;2055;50.074;8.436;2022-08-19T15:27:11;31.10;90.80
4081;DHT22;2055;50.074;8.436;2022-08-19T15:29:38;30.60;91.10
4081;DHT22;2055;50.074;8.436;2022-08-19T15:32:03;31.90;91.30
4081;DHT22;2055;50.074;8.436;2022-08-19T15:34:31;32.00;90.70
4081;DHT22;2055;50.074;8.436;2022-08-19T15:36:57;31.60;91.00
4081;DHT22;2055;50.074;8.436;2022-08-19T15:39:24;32.80;90.40
4081;DHT22;2055;50.074;8.436;2022-08-19T15:41:49;33.20;89.00
4081;DHT22;2055;50.074;8.436;2022-08-19T15:44:18;31.80;85.90
4081;DHT22;2055;50.074;8.436;2022-08-19T15:46:46;31.20;87.80
4081;DHT22;2055;50.074;8.436;2022-08-19T15:49:17;31.40;87.80
4081;DHT22;2055;50.074;8.436;2022-08-19T15:51:45;30.40;89.50
4081;DHT22;2055;50.074;8.436;2022-08-19T15:54:14;31.70;89.80
4081;DHT22;2055;50.074;8.436;2022-08-19T15:56:40;31.00;90.50
4081;DHT22;2055;50.074;8.436;2022-08-19T15:59:24;31.50;90.20
4081;DHT22;2055;50.074;8.436;2022-08-19T16:02:09;30.30;90.70
4081;DHT22;2055;50.074;8.436;2022-08-19T16:04:53;31.40;91.00
4081;DHT22;2055;50.074;8.436;2022-08-19T16:07:37;31.00;90.60
4081;DHT22;2055;50.074;8.436;2022-08-19T16:10:04;31.00;90.50
4081;DHT22;2055;50.074;8.436;2022-08-19T16:12:30;30.70;90.70
4081;DHT22;2055;50.074;8.436;2022-08-19T16:14:56;31.20;90.70
4081;DHT22;2055;50.074;8.436;2022-08-19T16:17:23;30.00;91.10
4081;DHT22;2055;50.074;8.436;2022-08-19T16:19:49;30.00;91.60